sensor_id;sensor_type;location;lat;lon;timestamp;temperature;humidity
16955;DHT22;8594;52.052;8.354;2024-01-16T00:00:42;2.30;99.90
16955;DHT22;8594;52.052;8.354;2024-01-16T00:03:09;2.40;99.90
16955;DHT22;8594;52.052;8.354;2024-01-16T00:05:36;2.50;99.90
16955;DHT22;8594;52.052;8.354;2024-01-16T00:08:03;2.20;99.90
16955;DHT22;8594;52.052;8.354;2024-01-16T00:10:30;2.30;99.90
16955;DHT22;8594;52.052;8.354;2024-01-16T00:12:57;2.10;99.90
16955;DHT22;8594;52.052;8.354;2024-01-16T00:15:23;2.00;99.90
16955;DHT22;8594;52.052;8.354;2024-01-16T00:17:52;2.10;99.90
16955;DHT22;8594;52.052;8.354;2024-01-16T00:20:18;2.20;99.90
16955;DHT22;8594;52.052;8.354;2024-01-16T00:22:45;2.10;99.90
16955;DHT22;8594;52.052;8.354;2024-01-16T00:25:12;2.20;99.90
16955;DHT22;8594;52.052;8.354;2024-01-16T00:27:39;2.10;99.90
16955;DHT22;8594;52.052;8.354;2024-01-16T00:30:06;2.30;99.90
16955;DHT22;8594;52.052;8.354;2024-01-16T00:32:34;2.10;99.90
16955;DHT22;8594;52.052;8.354;2024-01-16T00:35:02;2.20;99.90
16955;DHT22;8594;52.052;8.354;2024-01-16T00:37:30;2.10;99.90
16955;DHT22;8594;52.052;8.354;2024-01-16T00:39:56;2.00;99.90
16955;DHT22;8594;52.052;8.354;2024-01-16T00:42:23;2.20;99.90
16955;DHT22;8594;52.052;8.354;2024-01-16T00:44:50;2.10;99.90
16955;DHT22;8594;52.052;8.354;2024-01-16T00:47:17;2.20;99.90
16955;DHT22;8594;52.052;8.354;2024-01-16T00:49:43;2.20;99.90
16955;DHT22;8594;52.052;8.354;2024-01-16T00:52:11;2.10;99.90
16955;DHT22;8594;52.052;8.354;2024-01-16T00:54:38;2.00;99.90
16955;DHT22;8594;52.052;8.354;2024-01-16T00:57:05;2.00;99.90
16955;DHT22;8594;52.052;8.354;2024-01-16T00:59:32;1.90;99.90
16955;DHT22;8594;52.052;8.354;2024-01-16T01:01:59;1.90;99.90
16955;DHT22;8594;52.052;8.354;2024-01-16T01:04:25;2.10;99.90
16955;DHT22;8594;52.052;8.354;2024-01-16T01:06:52;2.30;99.90
16955;DHT22;8594;52.052;8.354;2024-01-16T01:09:20;2.40;99.90
16955;DHT22;8594;52.052;8.354;2024-01-16T01:11:47;2.40;99.90
16955;DHT22;8594;52.052;8.354;2024-01-16T01:14:14;2.40;99.90
16955;DHT22;8594;52.052;8.354;2024-01-16T01:16:41;2.30;99.90
16955;DHT22;8594;52.052;8.354;2024-01-16T01:19:07;2.30;99.90
16955;DHT22;8594;52.052;8.354;2024-01-16T01:21:35;2.30;99.90
16955;DHT22;8594;52.052;8.354;2024-01-16T01:24:02;2.30;99.90
16955;DHT22;8594;52.052;8.354;2024-01-16T01:26:30;2.40;99.90
16955;DHT22;8594;52.052;8.354;2024-01-16T01:28:57;2.60;99.90
16955;DHT22;8594;52.052;8.354;2024-01-16T01:31:24;2.40;99.90
16955;DHT22;8594;52.052;8.354;2024-01-16T01:33:51;2.50;99.90
16955;DHT22;8594;52.052;8.354;2024-01-16T01:36:17;2.40;99.90
16955;DHT22;8594;52.052;8.354;2024-01-16T01:38:44;2.20;99.90
16955;DHT22;8594;52.052;8.354;2024-01-16T01:41:11;2.10;99.90
16955;DHT22;8594;52.052;8.354;2024-01-16T01:43:39;2.10;99.90
16955;DHT22;8594;52.052;8.354;2024-01-16T01:46:09;2.10;99.90
16955;DHT22;8594;52.052;8.354;2024-01-16T01:48:38;2.20;99.90
16955;DHT22;8594;52.052;8.354;2024-01-16T01:51:07;2.30;99.90
16955;DHT22;8594;52.052;8.354;2024-01-16T01:53:34;2.30;99.90
16955;DHT22;8594;52.052;8.354;2024-01-16T01:56:04;2.10;99.90
16955;DHT22;8594;52.052;8.354;2024-01-16T01:58:33;1.90;99.90
16955;DHT22;8594;52.052;8.354;2024-01-16T02:01:02;1.90;99.90
16955;DHT22;8594;52.052;8.354;2024-01-16T02:03:34;2.10;99.90
16955;DHT22;8594;52.052;8.354;2024-01-16T02:06:04;1.90;99.90
16955;DHT22;8594;52.052;8.354;2024-01-16T02:08:32;2.10;99.90
16955;DHT22;8594;52.052;8.354;2024-01-16T02:10:59;2.10;99.90
16955;DHT22;8594;52.052;8.354;2024-01-16T02:13:26;1.90;99.90
16955;DHT22;8594;52.052;8.354;2024-01-16T02:15:52;2.00;99.90
16955;DHT22;8594;52.052;8.354;2024-01-16T02:18:20;2.30;99.90
16955;DHT22;8594;52.052;8.354;2024-01-16T02:20:47;2.20;99.90
16955;DHT22;8594;52.052;8.354;2024-01-16T02:23:14;2.10;99.90
16955;DHT22;8594;52.052;8.354;2024-01-16T02:25:45;2.20;99.90
16955;DHT22;8594;52.052;8.354;2024-01-16T02:28:12;2.30;99.90
16955;DHT22;8594;52.052;8.354;2024-01-16T02:30:38;2.20;99.90
16955;DHT22;8594;52.052;8.354;2024-01-16T02:33:08;2.10;99.90
16955;DHT22;8594;52.052;8.354;2024-01-16T02:35:35;2.30;99.90
16955;DHT22;8594;52.052;8.354;2024-01-16T02:38:01;2.30;99.90
16955;DHT22;8594;52.052;8.354;2024-01-16T02:40:28;2.20;99.90
16955;DHT22;8594;52.052;8.354;2024-01-16T02:42:56;1.90;99.90
16955;DHT22;8594;52.052;8.354;2024-01-16T02:45:23;1.80;99.90
16955;DHT22;8594;52.052;8.354;2024-01-16T02:47:50;2.00;99.90
16955;DHT22;8594;52.052;8.354;2024-01-16T02:50:16;2.10;99.90
16955;DHT22;8594;52.052;8.354;2024-01-16T02:52:45;2.20;99.90
16955;DHT22;8594;52.052;8.354;2024-01-16T02:55:12;2.20;99.90
16955;DHT22;8594;52.052;8.354;2024-01-16T02:57:39;2.30;99.90
16955;DHT22;8594;52.052;8.354;2024-01-16T03:00:08;2.20;99.90
16955;DHT22;8594;52.052;8.354;2024-01-16T03:02:35;2.10;99.90
16955;DHT22;8594;52.052;8.354;2024-01-16T03:05:02;2.20;99.90
16955;DHT22;8594;52.052;8.354;2024-01-16T03:07:30;2.10;99.90
16955;DHT22;8594;52.052;8.354;2024-01-16T03:09:57;2.00;99.90
16955;DHT22;8594;52.052;8.354;2024-01-16T03:12:23;1.80;99.90
16955;DHT22;8594;52.052;8.354;2024-01-16T03:14:50;2.10;99.90
16955;DHT22;8594;52.052;8.354;2024-01-16T03:17:20;1.90;99.90
16955;DHT22;8594;52.052;8.354;2024-01-16T03:19:46;2.10;99.90
16955;DHT22;8594;52.052;8.354;2024-01-16T03:22:13;2.10;99.90
16955;DHT22;8594;52.052;8.354;2024-01-16T03:24:40;2.20;99.90
16955;DHT22;8594;52.052;8.354;2024-01-16T03:27:06;2.30;99.90
16955;DHT22;8594;52.052;8.354;2024-01-16T03:29:33;2.40;99.90
16955;DHT22;8594;52.052;8.354;2024-01-16T03:32:00;2.20;99.90
16955;DHT22;8594;52.052;8.354;2024-01-16T03:34:30;2.10;99.90
16955;DHT22;8594;52.052;8.354;2024-01-16T03:36:57;2.20;99.90
16955;DHT22;8594;52.052;8.354;2024-01-16T03:39:23;2.20;99.90
16955;DHT22;8594;52.052;8.354;2024-01-16T03:41:50;2.20;99.90
16955;DHT22;8594;52.052;8.354;2024-01-16T03:44:17;2.10;99.90
16955;DHT22;8594;52.052;8.354;2024-01-16T03:46:44;2.10;99.90
16955;DHT22;8594;52.052;8.354;2024-01-16T03:49:11;2.10;99.90
16955;DHT22;8594;52.052;8.354;2024-01-16T03:51:39;2.10;99.90
16955;DHT22;8594;52.052;8.354;2024-01-16T03:54:08;2.10;99.90
16955;DHT22;8594;52.052;8.354;2024-01-16T03:56:34;2.30;99.90
16955;DHT22;8594;52.052;8.354;2024-01-16T03:59:01;2.40;99.90
16955;DHT22;8594;52.052;8.354;2024-01-16T04:01:32;2.40;99.90
16955;DHT22;8594;52.052;8.354;2024-01-16T04:03:59;2.30;99.90
16955;DHT22;8594;52.052;8.354;2024-01-16T04:06:26;2.40;99.90
16955;DHT22;8594;52.052;8.354;2024-01-16T04:08:55;2.40;99.90
16955;DHT22;8594;52.052;8.354;2024-01-16T04:11:22;2.30;99.90
16955;DHT22;8594;52.052;8.354;2024-01-16T04:13:49;2.20;99.90
16955;DHT22;8594;52.052;8.354;2024-01-16T04:16:16;2.40;99.90
16955;DHT22;8594;52.052;8.354;2024-01-16T04:18:43;2.40;99.90
16955;DHT22;8594;52.052;8.354;2024-01-16T04:21:10;2.20;99.90
16955;DHT22;8594;52.052;8.354;2024-01-16T04:23:37;2.10;99.90
16955;DHT22;8594;52.052;8.354;2024-01-16T04:26:05;2.20;99.90
16955;DHT22;8594;52.052;8.354;2024-01-16T04:28:33;2.10;99.90
16955;DHT22;8594;52.052;8.354;2024-01-16T04:31:00;2.00;99.90
16955;DHT22;8594;52.052;8.354;2024-01-16T04:33:27;2.00;99.90
16955;DHT22;8594;52.052;8.354;2024-01-16T04:35:54;2.10;99.90
16955;DHT22;8594;52.052;8.354;2024-01-16T04:38:21;2.10;99.90
16955;DHT22;8594;52.052;8.354;2024-01-16T04:40:47;2.10;99.90
16955;DHT22;8594;52.052;8.354;2024-01-16T04:43:15;2.00;99.90
16955;DHT22;8594;52.052;8.354;2024-01-16T04:45:42;1.90;99.90
16955;DHT22;8594;52.052;8.354;2024-01-16T04:48:09;1.80;99.90
16955;DHT22;8594;52.052;8.354;2024-01-16T04:50:35;1.80;99.90
16955;DHT22;8594;52.052;8.354;2024-01-16T04:53:02;1.90;99.90
16955;DHT22;8594;52.052;8.354;2024-01-16T04:55:30;2.10;99.90
16955;DHT22;8594;52.052;8.354;2024-01-16T04:57:57;2.00;99.90
16955;DHT22;8594;52.052;8.354;2024-01-16T05:00:26;1.80;99.90
16955;DHT22;8594;52.052;8.354;2024-01-16T05:02:53;2.00;99.90
16955;DHT22;8594;52.052;8.354;2024-01-16T05:05:20;1.90;99.90
16955;DHT22;8594;52.052;8.354;2024-01-16T05:07:46;2.00;99.90
16955;DHT22;8594;52.052;8.354;2024-01-16T05:10:13;2.10;99.90
16955;DHT22;8594;52.052;8.354;2024-01-16T05:12:40;1.90;99.90
16955;DHT22;8594;52.052;8.354;2024-01-16T05:15:08;1.90;99.90
16955;DHT22;8594;52.052;8.354;2024-01-16T05:17:37;1.90;99.90
16955;DHT22;8594;52.052;8.354;2024-01-16T05:20:05;1.90;99.90
16955;DHT22;8594;52.052;8.354;2024-01-16T05:22:33;2.10;99.90
16955;DHT22;8594;52.052;8.354;2024-01-16T05:25:00;2.20;99.90
16955;DHT22;8594;52.052;8.354;2024-01-16T05:27:27;2.30;99.90
16955;DHT22;8594;52.052;8.354;2024-01-16T05:29:54;2.20;99.90
16955;DHT22;8594;52.052;8.354;2024-01-16T05:32:21;2.00;99.90
16955;DHT22;8594;52.052;8.354;2024-01-16T05:34:49;2.00;99.90
16955;DHT22;8594;52.052;8.354;2024-01-16T05:37:16;1.90;99.90
16955;DHT22;8594;52.052;8.354;2024-01-16T05:39:42;2.00;99.90
16955;DHT22;8594;52.052;8.354;2024-01-16T05:42:09;2.00;99.90
16955;DHT22;8594;52.052;8.354;2024-01-16T05:44:37;2.20;99.90
16955;DHT22;8594;52.052;8.354;2024-01-16T05:47:04;2.10;99.90
16955;DHT22;8594;52.052;8.354;2024-01-16T05:49:31;2.10;99.90
16955;DHT22;8594;52.052;8.354;2024-01-16T05:51:59;2.10;99.90
16955;DHT22;8594;52.052;8.354;2024-01-16T05:54:26;2.10;99.90
16955;DHT22;8594;52.052;8.354;2024-01-16T05:56:54;2.20;99.90
16955;DHT22;8594;52.052;8.354;2024-01-16T05:59:20;2.10;99.90
16955;DHT22;8594;52.052;8.354;2024-01-16T06:01:47;2.20;99.90
16955;DHT22;8594;52.052;8.354;2024-01-16T06:04:14;2.20;99.90
16955;DHT22;8594;52.052;8.354;2024-01-16T06:06:41;2.10;99.90
16955;DHT22;8594;52.052;8.354;2024-01-16T06:09:11;2.00;99.90
16955;DHT22;8594;52.052;8.354;2024-01-16T06:11:40;2.20;99.90
16955;DHT22;8594;52.052;8.354;2024-01-16T06:14:07;2.30;99.90
16955;DHT22;8594;52.052;8.354;2024-01-16T06:16:34;2.20;99.90
16955;DHT22;8594;52.052;8.354;2024-01-16T06:19:01;2.00;99.90
16955;DHT22;8594;52.052;8.354;2024-01-16T06:21:28;1.70;99.90
16955;DHT22;8594;52.052;8.354;2024-01-16T06:23:55;1.70;99.90
16955;DHT22;8594;52.052;8.354;2024-01-16T06:26:23;1.80;99.90
16955;DHT22;8594;52.052;8.354;2024-01-16T06:28:50;1.90;99.90
16955;DHT22;8594;52.052;8.354;2024-01-16T06:31:16;2.00;99.90
16955;DHT22;8594;52.052;8.354;2024-01-16T06:33:44;1.90;99.90
16955;DHT22;8594;52.052;8.354;2024-01-16T06:36:10;1.80;99.90
16955;DHT22;8594;52.052;8.354;2024-01-16T06:38:38;1.70;99.90
16955;DHT22;8594;52.052;8.354;2024-01-16T06:41:06;1.90;99.90
16955;DHT22;8594;52.052;8.354;2024-01-16T06:43:34;2.00;99.90
16955;DHT22;8594;52.052;8.354;2024-01-16T06:46:01;2.00;99.90
16955;DHT22;8594;52.052;8.354;2024-01-16T06:48:28;2.10;99.90
16955;DHT22;8594;52.052;8.354;2024-01-16T06:50:55;2.20;99.90
16955;DHT22;8594;52.052;8.354;2024-01-16T06:53:22;2.10;99.90
16955;DHT22;8594;52.052;8.354;2024-01-16T06:55:48;2.10;99.90
16955;DHT22;8594;52.052;8.354;2024-01-16T06:58:15;2.00;99.90
16955;DHT22;8594;52.052;8.354;2024-01-16T07:00:43;2.10;99.90
16955;DHT22;8594;52.052;8.354;2024-01-16T07:03:15;2.10;99.90
16955;DHT22;8594;52.052;8.354;2024-01-16T07:05:42;2.10;99.90
16955;DHT22;8594;52.052;8.354;2024-01-16T07:08:09;2.10;99.90
16955;DHT22;8594;52.052;8.354;2024-01-16T07:10:36;2.20;99.90
16955;DHT22;8594;52.052;8.354;2024-01-16T07:13:03;2.00;99.90
16955;DHT22;8594;52.052;8.354;2024-01-16T07:15:30;2.10;99.90
16955;DHT22;8594;52.052;8.354;2024-01-16T07:17:58;2.10;99.90
16955;DHT22;8594;52.052;8.354;2024-01-16T07:20:25;1.90;99.90
16955;DHT22;8594;52.052;8.354;2024-01-16T07:22:52;2.00;99.90
16955;DHT22;8594;52.052;8.354;2024-01-16T07:25:18;2.10;99.90
16955;DHT22;8594;52.052;8.354;2024-01-16T07:27:45;2.30;99.90
16955;DHT22;8594;52.052;8.354;2024-01-16T07:30:15;2.30;99.90
16955;DHT22;8594;52.052;8.354;2024-01-16T07:32:41;2.20;99.90
16955;DHT22;8594;52.052;8.354;2024-01-16T07:35:10;2.20;99.90
16955;DHT22;8594;52.052;8.354;2024-01-16T07:37:36;2.10;99.90
16955;DHT22;8594;52.052;8.354;2024-01-16T07:40:04;2.10;99.90
16955;DHT22;8594;52.052;8.354;2024-01-16T07:42:32;2.10;99.90
16955;DHT22;8594;52.052;8.354;2024-01-16T07:45:00;2.00;99.90
16955;DHT22;8594;52.052;8.354;2024-01-16T07:47:29;2.20;99.90
16955;DHT22;8594;52.052;8.354;2024-01-16T07:49:56;2.30;99.90
16955;DHT22;8594;52.052;8.354;2024-01-16T07:52:24;2.00;99.90
16955;DHT22;8594;52.052;8.354;2024-01-16T07:54:51;2.10;99.90
16955;DHT22;8594;52.052;8.354;2024-01-16T07:57:17;2.10;99.90
16955;DHT22;8594;52.052;8.354;2024-01-16T07:59:44;2.10;99.90
16955;DHT22;8594;52.052;8.354;2024-01-16T08:02:11;2.10;99.90
16955;DHT22;8594;52.052;8.354;2024-01-16T08:04:38;2.40;99.90
16955;DHT22;8594;52.052;8.354;2024-01-16T08:07:04;2.20;99.90
16955;DHT22;8594;52.052;8.354;2024-01-16T08:09:32;2.20;99.90
16955;DHT22;8594;52.052;8.354;2024-01-16T08:12:00;2.20;99.90
16955;DHT22;8594;52.052;8.354;2024-01-16T08:14:28;2.20;99.90
16955;DHT22;8594;52.052;8.354;2024-01-16T08:16:54;2.20;99.90
16955;DHT22;8594;52.052;8.354;2024-01-16T08:19:21;2.10;99.90
16955;DHT22;8594;52.052;8.354;2024-01-16T08:21:48;2.20;99.90
16955;DHT22;8594;52.052;8.354;2024-01-16T08:24:14;2.40;99.90
16955;DHT22;8594;52.052;8.354;2024-01-16T08:26:42;2.20;99.90
16955;DHT22;8594;52.052;8.354;2024-01-16T08:29:09;2.40;99.90
16955;DHT22;8594;52.052;8.354;2024-01-16T08:31:36;2.30;99.90
16955;DHT22;8594;52.052;8.354;2024-01-16T08:34:03;2.10;99.90
16955;DHT22;8594;52.052;8.354;2024-01-16T08:36:29;2.00;99.90
16955;DHT22;8594;52.052;8.354;2024-01-16T08:38:56;2.20;99.90
16955;DHT22;8594;52.052;8.354;2024-01-16T08:41:23;2.30;99.90
16955;DHT22;8594;52.052;8.354;2024-01-16T08:43:51;2.40;99.90
16955;DHT22;8594;52.052;8.354;2024-01-16T08:46:18;2.50;99.90
16955;DHT22;8594;52.052;8.354;2024-01-16T08:48:46;2.30;99.90
16955;DHT22;8594;52.052;8.354;2024-01-16T08:51:13;2.30;99.90
16955;DHT22;8594;52.052;8.354;2024-01-16T08:53:40;2.40;99.90
16955;DHT22;8594;52.052;8.354;2024-01-16T08:56:07;2.40;99.90
16955;DHT22;8594;52.052;8.354;2024-01-16T08:58:34;2.50;99.90
16955;DHT22;8594;52.052;8.354;2024-01-16T09:01:04;2.30;99.90
16955;DHT22;8594;52.052;8.354;2024-01-16T09:03:32;2.50;99.90
16955;DHT22;8594;52.052;8.354;2024-01-16T09:05:59;2.70;99.90
16955;DHT22;8594;52.052;8.354;2024-01-16T09:08:26;2.60;99.90
16955;DHT22;8594;52.052;8.354;2024-01-16T09:10:53;2.30;99.90
16955;DHT22;8594;52.052;8.354;2024-01-16T09:13:20;2.30;99.90
16955;DHT22;8594;52.052;8.354;2024-01-16T09:15:48;2.30;99.90
16955;DHT22;8594;52.052;8.354;2024-01-16T09:18:17;2.40;99.90
16955;DHT22;8594;52.052;8.354;2024-01-16T09:20:44;2.60;99.90
16955;DHT22;8594;52.052;8.354;2024-01-16T09:23:12;2.60;99.90
16955;DHT22;8594;52.052;8.354;2024-01-16T09:25:39;2.60;99.90
16955;DHT22;8594;52.052;8.354;2024-01-16T09:28:06;2.70;99.90
16955;DHT22;8594;52.052;8.354;2024-01-16T09:30:33;2.70;99.90
16955;DHT22;8594;52.052;8.354;2024-01-16T09:33:00;2.70;99.90
16955;DHT22;8594;52.052;8.354;2024-01-16T09:35:30;2.70;99.90
16955;DHT22;8594;52.052;8.354;2024-01-16T09:37:56;2.60;99.90
16955;DHT22;8594;52.052;8.354;2024-01-16T09:40:24;2.30;99.90
16955;DHT22;8594;52.052;8.354;2024-01-16T09:42:51;2.30;99.90
16955;DHT22;8594;52.052;8.354;2024-01-16T09:45:20;2.40;99.90
16955;DHT22;8594;52.052;8.354;2024-01-16T09:47:49;2.40;99.90
16955;DHT22;8594;52.052;8.354;2024-01-16T09:50:19;2.50;99.90
16955;DHT22;8594;52.052;8.354;2024-01-16T09:52:47;2.40;99.90
16955;DHT22;8594;52.052;8.354;2024-01-16T09:55:15;2.50;99.90
16955;DHT22;8594;52.052;8.354;2024-01-16T09:57:45;2.40;99.90
16955;DHT22;8594;52.052;8.354;2024-01-16T10:00:13;2.10;99.90
16955;DHT22;8594;52.052;8.354;2024-01-16T10:02:41;2.00;99.90
16955;DHT22;8594;52.052;8.354;2024-01-16T10:05:09;2.10;99.90
16955;DHT22;8594;52.052;8.354;2024-01-16T10:07:38;2.20;99.90
16955;DHT22;8594;52.052;8.354;2024-01-16T10:10:08;2.20;99.90
16955;DHT22;8594;52.052;8.354;2024-01-16T10:12:37;2.20;99.90
16955;DHT22;8594;52.052;8.354;2024-01-16T10:15:06;2.30;99.90
16955;DHT22;8594;52.052;8.354;2024-01-16T10:17:38;2.40;99.90
16955;DHT22;8594;52.052;8.354;2024-01-16T10:20:06;2.30;99.90
16955;DHT22;8594;52.052;8.354;2024-01-16T10:22:39;2.30;99.90
16955;DHT22;8594;52.052;8.354;2024-01-16T10:25:09;2.30;99.90
16955;DHT22;8594;52.052;8.354;2024-01-16T10:27:42;2.40;99.90
16955;DHT22;8594;52.052;8.354;2024-01-16T10:30:09;2.50;99.90
16955;DHT22;8594;52.052;8.354;2024-01-16T10:32:37;2.60;99.90
16955;DHT22;8594;52.052;8.354;2024-01-16T10:35:06;2.60;99.90
16955;DHT22;8594;52.052;8.354;2024-01-16T10:37:44;2.50;99.90
16955;DHT22;8594;52.052;8.354;2024-01-16T10:40:16;2.50;99.90
16955;DHT22;8594;52.052;8.354;2024-01-16T10:42:44;2.60;99.90
16955;DHT22;8594;52.052;8.354;2024-01-16T10:45:17;2.40;99.90
16955;DHT22;8594;52.052;8.354;2024-01-16T10:47:46;2.40;99.90
16955;DHT22;8594;52.052;8.354;2024-01-16T10:50:13;2.50;99.90
16955;DHT22;8594;52.052;8.354;2024-01-16T10:52:46;2.60;99.90
16955;DHT22;8594;52.052;8.354;2024-01-16T10:55:20;2.60;99.90
16955;DHT22;8594;52.052;8.354;2024-01-16T10:57:48;2.60;99.90
16955;DHT22;8594;52.052;8.354;2024-01-16T11:00:18;2.50;99.90
16955;DHT22;8594;52.052;8.354;2024-01-16T11:02:50;2.60;99.90
16955;DHT22;8594;52.052;8.354;2024-01-16T11:05:20;2.60;99.90
16955;DHT22;8594;52.052;8.354;2024-01-16T11:07:50;2.50;99.90
16955;DHT22;8594;52.052;8.354;2024-01-16T11:10:19;2.50;99.90
16955;DHT22;8594;52.052;8.354;2024-01-16T11:12:46;2.60;99.90
16955;DHT22;8594;52.052;8.354;2024-01-16T11:15:15;2.50;99.90
16955;DHT22;8594;52.052;8.354;2024-01-16T11:17:44;2.30;99.90
16955;DHT22;8594;52.052;8.354;2024-01-16T11:20:12;2.40;99.90
16955;DHT22;8594;52.052;8.354;2024-01-16T11:22:42;2.40;99.90
16955;DHT22;8594;52.052;8.354;2024-01-16T11:25:11;2.20;99.90
16955;DHT22;8594;52.052;8.354;2024-01-16T11:27:41;2.20;99.90
16955;DHT22;8594;52.052;8.354;2024-01-16T11:30:09;2.20;99.90
16955;DHT22;8594;52.052;8.354;2024-01-16T11:32:38;2.30;99.90
16955;DHT22;8594;52.052;8.354;2024-01-16T11:35:07;2.50;99.90
16955;DHT22;8594;52.052;8.354;2024-01-16T11:37:35;2.30;99.90
16955;DHT22;8594;52.052;8.354;2024-01-16T11:40:25;2.40;99.90
16955;DHT22;8594;52.052;8.354;2024-01-16T11:42:55;2.50;99.90
16955;DHT22;8594;52.052;8.354;2024-01-16T11:45:49;2.50;99.90
16955;DHT22;8594;52.052;8.354;2024-01-16T11:48:17;2.50;99.90
16955;DHT22;8594;52.052;8.354;2024-01-16T11:50:45;2.70;99.90
16955;DHT22;8594;52.052;8.354;2024-01-16T11:53:33;2.60;99.90
16955;DHT22;8594;52.052;8.354;2024-01-16T11:56:37;2.40;99.90
16955;DHT22;8594;52.052;8.354;2024-01-16T11:59:48;2.40;99.90
16955;DHT22;8594;52.052;8.354;2024-01-16T12:02:42;2.40;99.90
16955;DHT22;8594;52.052;8.354;2024-01-16T12:05:15;2.60;99.90
16955;DHT22;8594;52.052;8.354;2024-01-16T12:07:44;2.50;99.90
16955;DHT22;8594;52.052;8.354;2024-01-16T12:10:12;2.60;99.90
16955;DHT22;8594;52.052;8.354;2024-01-16T12:12:39;2.40;99.90
16955;DHT22;8594;52.052;8.354;2024-01-16T12:15:13;2.50;99.90
16955;DHT22;8594;52.052;8.354;2024-01-16T12:17:52;2.40;99.90
16955;DHT22;8594;52.052;8.354;2024-01-16T12:20:21;2.40;99.90
16955;DHT22;8594;52.052;8.354;2024-01-16T12:22:59;2.30;99.90
16955;DHT22;8594;52.052;8.354;2024-01-16T12:25:28;2.30;99.90
16955;DHT22;8594;52.052;8.354;2024-01-16T12:27:57;2.30;99.90
16955;DHT22;8594;52.052;8.354;2024-01-16T12:30:27;2.30;99.90
16955;DHT22;8594;52.052;8.354;2024-01-16T12:33:07;2.50;99.90
16955;DHT22;8594;52.052;8.354;2024-01-16T12:35:35;2.40;99.90
16955;DHT22;8594;52.052;8.354;2024-01-16T12:38:03;2.50;99.90
16955;DHT22;8594;52.052;8.354;2024-01-16T12:40:32;2.60;99.90
16955;DHT22;8594;52.052;8.354;2024-01-16T12:42:59;2.40;99.90
16955;DHT22;8594;52.052;8.354;2024-01-16T12:45:28;2.40;99.90
16955;DHT22;8594;52.052;8.354;2024-01-16T12:47:55;2.30;99.90
16955;DHT22;8594;52.052;8.354;2024-01-16T12:50:25;2.30;99.90
16955;DHT22;8594;52.052;8.354;2024-01-16T12:53:01;2.50;99.90
16955;DHT22;8594;52.052;8.354;2024-01-16T12:55:29;2.50;99.90
16955;DHT22;8594;52.052;8.354;2024-01-16T12:58:13;2.60;99.90
16955;DHT22;8594;52.052;8.354;2024-01-16T13:00:42;2.70;99.90
16955;DHT22;8594;52.052;8.354;2024-01-16T13:03:15;2.60;99.90
16955;DHT22;8594;52.052;8.354;2024-01-16T13:05:44;2.50;99.90
16955;DHT22;8594;52.052;8.354;2024-01-16T13:08:17;2.60;99.90
16955;DHT22;8594;52.052;8.354;2024-01-16T13:10:46;2.70;99.90
16955;DHT22;8594;52.052;8.354;2024-01-16T13:13:14;2.90;99.90
16955;DHT22;8594;52.052;8.354;2024-01-16T13:15:44;2.70;99.90
16955;DHT22;8594;52.052;8.354;2024-01-16T13:18:20;2.70;99.90
16955;DHT22;8594;52.052;8.354;2024-01-16T13:20:49;2.60;99.90
16955;DHT22;8594;52.052;8.354;2024-01-16T13:23:16;2.50;99.90
16955;DHT22;8594;52.052;8.354;2024-01-16T13:25:45;2.50;99.90
16955;DHT22;8594;52.052;8.354;2024-01-16T13:28:13;2.60;99.90
16955;DHT22;8594;52.052;8.354;2024-01-16T13:30:40;2.60;99.90
16955;DHT22;8594;52.052;8.354;2024-01-16T13:33:09;2.50;99.90
16955;DHT22;8594;52.052;8.354;2024-01-16T13:35:39;2.60;99.90
16955;DHT22;8594;52.052;8.354;2024-01-16T13:38:07;2.80;99.90
16955;DHT22;8594;52.052;8.354;2024-01-16T13:40:35;2.80;99.90
16955;DHT22;8594;52.052;8.354;2024-01-16T13:43:03;2.80;99.90
16955;DHT22;8594;52.052;8.354;2024-01-16T13:45:32;2.80;99.90
16955;DHT22;8594;52.052;8.354;2024-01-16T13:47:59;2.50;99.90
16955;DHT22;8594;52.052;8.354;2024-01-16T13:50:28;2.60;99.90
16955;DHT22;8594;52.052;8.354;2024-01-16T13:52:56;2.60;99.90
16955;DHT22;8594;52.052;8.354;2024-01-16T13:55:22;2.50;99.90
16955;DHT22;8594;52.052;8.354;2024-01-16T13:57:49;2.70;99.90
16955;DHT22;8594;52.052;8.354;2024-01-16T14:00:16;2.80;99.90
16955;DHT22;8594;52.052;8.354;2024-01-16T14:02:45;2.70;99.90
16955;DHT22;8594;52.052;8.354;2024-01-16T14:05:14;2.60;99.90
16955;DHT22;8594;52.052;8.354;2024-01-16T14:07:44;2.60;99.90
16955;DHT22;8594;52.052;8.354;2024-01-16T14:10:12;2.80;99.90
16955;DHT22;8594;52.052;8.354;2024-01-16T14:12:40;3.00;99.90
16955;DHT22;8594;52.052;8.354;2024-01-16T14:15:08;2.90;99.90
16955;DHT22;8594;52.052;8.354;2024-01-16T14:17:42;3.00;99.90
16955;DHT22;8594;52.052;8.354;2024-01-16T14:20:10;3.00;99.90
16955;DHT22;8594;52.052;8.354;2024-01-16T14:22:37;3.00;99.90
16955;DHT22;8594;52.052;8.354;2024-01-16T14:25:07;3.00;99.90
16955;DHT22;8594;52.052;8.354;2024-01-16T14:27:38;2.90;99.90
16955;DHT22;8594;52.052;8.354;2024-01-16T14:30:06;2.80;99.90
16955;DHT22;8594;52.052;8.354;2024-01-16T14:32:36;2.90;99.90
16955;DHT22;8594;52.052;8.354;2024-01-16T14:35:03;2.80;99.90
16955;DHT22;8594;52.052;8.354;2024-01-16T14:37:31;2.80;99.90
16955;DHT22;8594;52.052;8.354;2024-01-16T14:39:58;2.80;99.90
16955;DHT22;8594;52.052;8.354;2024-01-16T14:42:28;2.80;99.90
16955;DHT22;8594;52.052;8.354;2024-01-16T14:44:55;3.00;99.90
16955;DHT22;8594;52.052;8.354;2024-01-16T14:47:22;3.10;99.90
16955;DHT22;8594;52.052;8.354;2024-01-16T14:49:49;3.10;99.90
16955;DHT22;8594;52.052;8.354;2024-01-16T14:52:20;3.20;99.90
16955;DHT22;8594;52.052;8.354;2024-01-16T14:54:46;3.10;99.90
16955;DHT22;8594;52.052;8.354;2024-01-16T14:57:13;3.20;99.90
16955;DHT22;8594;52.052;8.354;2024-01-16T14:59:41;3.30;99.90
16955;DHT22;8594;52.052;8.354;2024-01-16T15:02:08;3.30;99.90
16955;DHT22;8594;52.052;8.354;2024-01-16T15:04:39;3.20;99.90
16955;DHT22;8594;52.052;8.354;2024-01-16T15:07:05;3.00;99.90
16955;DHT22;8594;52.052;8.354;2024-01-16T15:09:33;3.10;99.90
16955;DHT22;8594;52.052;8.354;2024-01-16T15:12:04;3.10;99.90
16955;DHT22;8594;52.052;8.354;2024-01-16T15:14:31;3.00;99.90
16955;DHT22;8594;52.052;8.354;2024-01-16T15:17:00;3.10;99.90
16955;DHT22;8594;52.052;8.354;2024-01-16T15:19:27;3.10;99.90
16955;DHT22;8594;52.052;8.354;2024-01-16T15:21:53;3.10;99.90
16955;DHT22;8594;52.052;8.354;2024-01-16T15:24:20;3.20;99.90
16955;DHT22;8594;52.052;8.354;2024-01-16T15:26:52;3.10;99.90
16955;DHT22;8594;52.052;8.354;2024-01-16T15:29:19;3.30;99.90
16955;DHT22;8594;52.052;8.354;2024-01-16T15:31:46;3.30;99.90
16955;DHT22;8594;52.052;8.354;2024-01-16T15:34:14;3.20;99.90
16955;DHT22;8594;52.052;8.354;2024-01-16T15:36:41;3.20;99.90
16955;DHT22;8594;52.052;8.354;2024-01-16T15:39:08;3.20;99.90
16955;DHT22;8594;52.052;8.354;2024-01-16T15:41:36;3.20;99.90
16955;DHT22;8594;52.052;8.354;2024-01-16T15:44:02;3.00;99.90
16955;DHT22;8594;52.052;8.354;2024-01-16T15:46:31;3.00;99.90
16955;DHT22;8594;52.052;8.354;2024-01-16T15:48:58;2.80;99.90
16955;DHT22;8594;52.052;8.354;2024-01-16T15:51:26;2.90;99.90
16955;DHT22;8594;52.052;8.354;2024-01-16T15:53:52;3.00;99.90
16955;DHT22;8594;52.052;8.354;2024-01-16T15:56:19;3.00;99.90
16955;DHT22;8594;52.052;8.354;2024-01-16T15:58:46;2.90;99.90
16955;DHT22;8594;52.052;8.354;2024-01-16T16:01:12;3.00;99.90
16955;DHT22;8594;52.052;8.354;2024-01-16T16:03:39;3.00;99.90
16955;DHT22;8594;52.052;8.354;2024-01-16T16:06:06;3.10;99.90
16955;DHT22;8594;52.052;8.354;2024-01-16T16:08:35;3.00;99.90